Time;durP1;ratioP1;P1;durP2;ratioP2;P2;SDS_P1;SDS_P2;PMS_P1;PMS_P2;Temp;Humidity;BMP_temperature;BMP_pressure;BME280_temperature;BME280_humidity;BME280_pressure;Samples;Min_cycle;Max_cycle;Signal;HPM_P1;HPM_P2
2021/01/27 00:01:52;;;;;;;3.40;1.52;;;2.10;49.40;;;;;;6098065;23;20203;-67
2021/01/27 00:04:19;;;;;;;3.03;1.70;;;2.10;49.20;;;;;;6097962;23;20241;-68
2021/01/27 00:06:46;;;;;;;1.75;0.85;;;2.10;49.40;;;;;;6097076;23;20169;-67
2021/01/27 00:09:13;;;;;;;2.85;1.30;;;2.10;49.40;;;;;;6097812;23;20169;-68
2021/01/27 00:11:59;;;;;;;3.35;1.33;;;2.10;49.20;;;;;;6098171;23;20544;-67
2021/01/27 00:14:27;;;;;;;1.85;1.00;;;2.20;49.30;;;;;;6097224;23;20208;-68
2021/01/27 00:16:57;;;;;;;2.50;1.17;;;2.20;49.40;;;;;;6097072;23;20204;-67
2021/01/27 00:19:42;;;;;;;1.90;0.82;;;2.20;49.40;;;;;;6097704;23;20165;-67
2021/01/27 00:22:09;;;;;;;9.50;2.75;;;2.20;49.00;;;;;;6097522;23;20643;-67
2021/01/27 00:24:43;;;;;;;2.08;1.08;;;2.20;48.80;;;;;;6097996;23;20240;-67
2021/01/27 00:27:12;;;;;;;1.80;1.00;;;2.20;48.80;;;;;;6097924;23;20196;-67
2021/01/27 00:29:41;;;;;;;2.60;1.27;;;2.20;49.00;;;;;;6097332;23;20474;-67
2021/01/27 00:32:09;;;;;;;2.50;1.45;;;2.30;48.90;;;;;;6097717;23;20229;-67
2021/01/27 00:34:38;;;;;;;2.88;1.40;;;2.30;49.00;;;;;;6097243;23;20199;-67
2021/01/27 00:37:06;;;;;;;2.40;1.10;;;2.30;48.70;;;;;;6097738;23;20176;-67
2021/01/27 00:39:38;;;;;;;2.80;1.42;;;2.30;48.60;;;;;;6098169;23;20177;-67
2021/01/27 00:42:08;;;;;;;1.98;1.15;;;2.30;48.50;;;;;;6097699;23;20184;-67
2021/01/27 00:44:34;;;;;;;1.90;1.00;;;2.30;48.60;;;;;;6097175;23;20540;-67
2021/01/27 00:47:06;;;;;;;3.42;0.98;;;2.30;48.50;;;;;;6097039;23;20248;-69
2021/01/27 00:49:41;;;;;;;1.52;0.60;;;2.30;48.30;;;;;;6097137;23;20181;-67
2021/01/27 00:52:12;;;;;;;3.17;0.70;;;2.30;48.20;;;;;;6097614;23;20153;-67
2021/01/27 00:54:45;;;;;;;1.85;1.13;;;2.40;48.30;;;;;;6097703;23;20545;-68
2021/01/27 00:57:15;;;;;;;3.53;1.17;;;2.40;48.30;;;;;;6097073;23;20153;-68
2021/01/27 00:59:47;;;;;;;2.72;1.05;;;2.40;48.20;;;;;;6097251;23;20680;-67
2021/01/27 01:02:20;;;;;;;6.35;1.27;;;2.40;48.00;;;;;;6097021;23;20212;-67
2021/01/27 01:04:47;;;;;;;3.42;1.23;;;2.30;47.90;;;;;;6096850;23;20158;-67
2021/01/27 01:07:19;;;;;;;1.83;0.90;;;2.30;47.90;;;;;;6097318;23;20169;-68
2021/01/27 01:09:56;;;;;;;4.60;0.90;;;2.30;47.90;;;;;;6096800;23;20165;-68
2021/01/27 01:12:28;;;;;;;2.35;1.40;;;2.20;47.80;;;;;;6096682;23;20165;-67
2021/01/27 01:14:59;;;;;;;3.55;1.17;;;2.20;47.80;;;;;;6095978;23;20204;-69
2021/01/27 01:17:29;;;;;;;1.77;0.88;;;2.20;48.00;;;;;;6096680;23;20470;-67
2021/01/27 01:19:57;;;;;;;2.30;1.33;;;2.10;47.70;;;;;;6097054;23;20462;-67
2021/01/27 01:22:30;;;;;;;1.98;0.90;;;2.10;47.70;;;;;;6097125;23;20176;-69
2021/01/27 01:25:00;;;;;;;1.80;0.93;;;2.10;47.80;;;;;;6096979;23;20507;-67
2021/01/27 01:27:32;;;;;;;2.25;1.30;;;2.10;47.80;;;;;;6094524;23;20205;-71
2021/01/27 01:30:05;;;;;;;3.25;1.02;;;2.10;47.80;;;;;;6096890;23;20204;-72
2021/01/27 01:32:37;;;;;;;3.05;1.05;;;2.00;47.90;;;;;;6097472;23;20189;-68
2021/01/27 01:35:08;;;;;;;2.55;1.00;;;2.00;47.90;;;;;;6096982;23;20153;-67
2021/01/27 01:37:36;;;;;;;1.77;0.90;;;2.00;48.00;;;;;;6096646;23;20173;-71
2021/01/27 01:40:18;;;;;;;1.60;0.90;;;2.00;48.10;;;;;;6096884;23;20175;-68
2021/01/27 01:43:09;;;;;;;1.90;0.85;;;2.00;48.20;;;;;;6096986;23;20161;-67
2021/01/27 01:45:51;;;;;;;2.30;1.08;;;2.00;48.30;;;;;;6096605;23;20172;-67
2021/01/27 01:48:33;;;;;;;2.78;1.00;;;2.00;48.40;;;;;;6096488;23;20153;-68
2021/01/27 01:51:03;;;;;;;1.88;0.95;;;2.00;48.30;;;;;;6096608;23;20231;-68
2021/01/27 01:53:37;;;;;;;4.55;1.10;;;2.00;48.10;;;;;;6096473;23;20264;-67
2021/01/27 01:56:08;;;;;;;1.60;0.80;;;2.10;48.30;;;;;;6096776;23;20212;-67
2021/01/27 01:58:41;;;;;;;3.17;1.10;;;2.10;48.50;;;;;;6096874;23;20162;-67
2021/01/27 02:01:12;;;;;;;3.67;1.30;;;2.10;48.30;;;;;;6096731;23;20181;-67
2021/01/27 02:03:43;;;;;;;3.63;1.10;;;2.20;48.30;;;;;;6096650;23;20153;-67
2021/01/27 02:06:15;;;;;;;2.28;1.10;;;2.20;48.30;;;;;;6096342;23;20158;-67
2021/01/27 02:08:48;;;;;;;2.83;1.00;;;2.20;48.30;;;;;;6096209;23;20153;-67
2021/01/27 02:11:16;;;;;;;1.83;0.80;;;2.20;48.20;;;;;;6096078;23;20232;-68
2021/01/27 02:14:03;;;;;;;2.40;1.00;;;2.20;48.20;;;;;;6096320;23;20205;-68
2021/01/27 02:16:43;;;;;;;2.60;1.17;;;2.30;49.00;;;;;;6095885;23;20160;-68
2021/01/27 02:20:00;;;;;;;1.60;0.80;;;2.20;48.00;;;;;;6096205;23;20205;-67
2021/01/27 02:23:11;;;;;;;3.53;1.20;;;2.20;47.90;;;;;;6096611;23;20164;-68
2021/01/27 02:26:14;;;;;;;3.15;1.25;;;2.20;47.50;;;;;;6086929;23;20199;-67
2021/01/27 02:29:06;;;;;;;3.50;1.08;;;2.10;47.50;;;;;;6048507;23;20169;-68
2021/01/27 02:31:46;;;;;;;2.80;1.05;;;2.00;47.60;;;;;;6089363;23;20472;-67
2021/01/27 02:34:33;;;;;;;1.40;0.82;;;2.00;47.70;;;;;;6096134;23;20191;-67
2021/01/27 02:37:04;;;;;;;2.45;1.20;;;2.00;47.90;;;;;;6096074;23;20153;-67
2021/01/27 02:39:35;;;;;;;2.17;1.27;;;1.90;47.60;;;;;;6096418;23;20168;-67
2021/01/27 02:42:19;;;;;;;1.90;1.00;;;1.90;47.60;;;;;;6096310;23;20169;-68
2021/01/27 02:44:57;;;;;;;2.83;1.10;;;1.80;47.70;;;;;;6096937;23;20157;-68
2021/01/27 02:47:26;;;;;;;1.73;0.88;;;1.80;47.70;;;;;;6096546;23;20442;-67
2021/01/27 02:50:03;;;;;;;1.95;0.90;;;1.70;47.70;;;;;;6096339;23;20165;-67
2021/01/27 02:52:41;;;;;;;1.67;0.70;;;1.70;47.70;;;;;;6096066;23;20609;-68
2021/01/27 02:55:17;;;;;;;2.35;1.10;;;1.70;47.90;;;;;;6095948;23;20180;-68
2021/01/27 02:57:49;;;;;;;1.95;1.00;;;1.70;47.90;;;;;;6096132;23;20675;-67
2021/01/27 03:00:23;;;;;;;1.83;0.75;;;1.60;47.80;;;;;;6095895;23;20192;-67
2021/01/27 03:02:56;;;;;;;3.28;1.23;;;1.60;47.80;;;;;;6096098;23;20255;-68
2021/01/27 03:05:36;;;;;;;2.45;0.90;;;1.60;47.70;;;;;;6095704;23;20157;-67
2021/01/27 03:08:20;;;;;;;2.33;1.00;;;1.50;47.70;;;;;;6095626;23;20157;-73
2021/01/27 03:10:55;;;;;;;1.77;0.80;;;1.50;47.60;;;;;;6096915;23;20491;-68
2021/01/27 03:13:35;;;;;;;2.95;0.98;;;1.50;47.70;;;;;;6095609;23;20191;-68
2021/01/27 03:16:07;;;;;;;1.83;0.98;;;1.40;47.50;;;;;;6096495;23;20608;-67
2021/01/27 03:18:37;;;;;;;3.55;1.00;;;1.30;47.40;;;;;;6095936;23;20168;-67
2021/01/27 03:21:10;;;;;;;1.77;0.90;;;1.30;47.50;;;;;;6098053;23;20252;-68
2021/01/27 03:23:42;;;;;;;5.32;1.42;;;1.20;47.60;;;;;;6097767;23;20160;-67
2021/01/27 03:26:16;;;;;;;2.65;1.23;;;1.10;47.70;;;;;;6098548;23;20517;-67
2021/01/27 03:28:53;;;;;;;5.00;1.83;;;1.10;48.00;;;;;;6097905;23;20167;-68
2021/01/27 03:31:28;;;;;;;2.58;0.88;;;0.90;48.70;;;;;;6098172;23;20185;-67
2021/01/27 03:34:12;;;;;;;2.08;0.90;;;0.80;49.10;;;;;;6097984;23;20188;-67
2021/01/27 03:36:50;;;;;;;3.15;1.00;;;0.70;49.20;;;;;;6097665;23;20157;-67
2021/01/27 03:39:20;;;;;;;4.72;1.58;;;0.70;49.40;;;;;;6097777;23;20157;-68
2021/01/27 03:42:00;;;;;;;1.83;0.82;;;0.60;49.50;;;;;;6097634;23;20165;-67
2021/01/27 03:44:32;;;;;;;2.22;1.08;;;0.60;49.60;;;;;;6097568;23;20619;-67
2021/01/27 03:47:12;;;;;;;1.60;0.90;;;0.60;49.50;;;;;;6098167;23;20157;-67
2021/01/27 03:49:58;;;;;;;2.05;1.00;;;0.50;49.10;;;;;;6097918;23;20240;-67
2021/01/27 03:52:39;;;;;;;2.60;1.00;;;0.40;49.20;;;;;;6095672;23;20199;-67
2021/01/27 03:55:20;;;;;;;2.75;0.73;;;0.40;49.40;;;;;;6097472;23;20264;-67
2021/01/27 03:57:53;;;;;;;1.90;1.08;;;0.30;49.60;;;;;;6098101;23;20164;-67
2021/01/27 04:00:24;;;;;;;3.88;0.75;;;0.20;49.80;;;;;;6097634;23;20611;-68
2021/01/27 04:03:01;;;;;;;2.75;1.13;;;0.20;49.90;;;;;;6098338;23;20158;-67
2021/01/27 04:05:28;;;;;;;5.93;1.33;;;0.10;49.50;;;;;;6098172;23;20236;-68
2021/01/27 04:07:55;;;;;;;2.08;1.00;;;0.00;49.50;;;;;;6098103;23;20248;-67
2021/01/27 04:10:26;;;;;;;3.92;1.15;;;-0.10;49.70;;;;;;6098331;23;20180;-68
2021/01/27 04:12:58;;;;;;;2.08;0.90;;;-0.10;50.10;;;;;;6098668;23;20522;-67
2021/01/27 04:15:29;;;;;;;2.75;0.90;;;-0.20;50.30;;;;;;6097539;23;20550;-68
2021/01/27 04:18:01;;;;;;;1.80;1.20;;;-0.20;50.40;;;;;;6097379;23;20161;-67
2021/01/27 04:20:28;;;;;;;1.95;1.45;;;-0.20;50.80;;;;;;6097658;23;20616;-69
2021/01/27 04:23:01;;;;;;;9.90;5.90;;;-0.20;51.50;;;;;;6094929;23;20165;-67
2021/01/27 04:25:38;;;;;;;3.15;1.10;;;-0.30;51.50;;;;;;6097145;23;20714;-67
2021/01/27 04:28:10;;;;;;;2.22;1.38;;;-0.40;52.00;;;;;;6095504;23;20240;-67
2021/01/27 04:30:47;;;;;;;1.98;0.90;;;-0.40;51.90;;;;;;6096966;23;20188;-67
2021/01/27 04:33:27;;;;;;;2.70;0.93;;;-0.40;52.00;;;;;;6098122;23;20232;-67
2021/01/27 04:36:03;;;;;;;2.40;0.90;;;-0.50;51.90;;;;;;6097663;23;20161;-67
2021/01/27 04:38:34;;;;;;;1.90;0.90;;;-0.60;52.30;;;;;;6097828;23;20164;-67
2021/01/27 04:41:05;;;;;;;2.88;0.90;;;-0.60;52.40;;;;;;6097226;23;20158;-67
2021/01/27 04:43:41;;;;;;;2.80;1.25;;;-0.60;52.40;;;;;;6097841;23;20162;-68
2021/01/27 04:46:25;;;;;;;3.45;1.15;;;-0.60;51.60;;;;;;6097553;23;20161;-67
2021/01/27 04:49:11;;;;;;;3.15;1.23;;;-0.60;51.70;;;;;;6097660;23;20185;-67
2021/01/27 04:51:52;;;;;;;2.83;1.27;;;-0.60;52.10;;;;;;6097813;23;20157;-67
2021/01/27 04:54:42;;;;;;;1.90;1.10;;;-0.60;52.40;;;;;;6097633;23;20271;-67
2021/01/27 04:57:24;;;;;;;2.05;1.13;;;-0.70;53.10;;;;;;6097896;23;20528;-67
2021/01/27 05:00:17;;;;;;;2.05;1.10;;;-0.70;53.10;;;;;;6097570;23;20154;-67
2021/01/27 05:03:03;;;;;;;1.80;1.23;;;-0.70;53.20;;;;;;6097654;23;20185;-67
2021/01/27 05:05:44;;;;;;;5.75;3.17;;;-0.70;53.10;;;;;;6097683;23;20160;-67
2021/01/27 05:08:19;;;;;;;25.27;8.98;;;-0.70;53.30;;;;;;6097315;23;20217;-67
2021/01/27 05:10:53;;;;;;;25.88;10.52;;;-0.60;53.20;;;;;;6097412;23;20193;-67
2021/01/27 05:13:34;;;;;;;9.10;4.60;;;-0.70;53.30;;;;;;6097146;23;20249;-68
2021/01/27 05:16:06;;;;;;;11.23;6.03;;;-0.70;53.40;;;;;;6097311;23;20160;-67
2021/01/27 05:18:38;;;;;;;9.23;5.85;;;-0.80;53.40;;;;;;6097487;23;20236;-67
2021/01/27 05:21:13;;;;;;;12.13;6.35;;;-0.80;53.50;;;;;;6094719;23;20204;-67
2021/01/27 05:23:41;;;;;;;8.93;6.22;;;-0.80;53.60;;;;;;6097480;23;20153;-67
2021/01/27 05:26:16;;;;;;;55.45;22.98;;;-0.80;53.80;;;;;;6096838;23;20201;-67
2021/01/27 05:28:56;;;;;;;69.55;28.30;;;-0.70;53.90;;;;;;6097303;23;20159;-68
2021/01/27 05:31:23;;;;;;;78.65;35.15;;;-0.80;54.00;;;;;;6097195;23;20153;-67
2021/01/27 05:33:54;;;;;;;64.55;28.77;;;-0.70;54.20;;;;;;6097367;23;20248;-67
2021/01/27 05:36:27;;;;;;;63.22;25.55;;;-0.80;54.00;;;;;;6092970;23;20217;-67
2021/01/27 05:39:10;;;;;;;51.65;20.92;;;-0.70;54.10;;;;;;6097388;23;20157;-67
2021/01/27 05:41:37;;;;;;;43.25;19.20;;;-0.70;54.10;;;;;;6095253;23;20880;-68
2021/01/27 05:44:26;;;;;;;42.25;20.35;;;-0.70;54.50;;;;;;6096778;23;20229;-67
2021/01/27 05:46:54;;;;;;;49.15;20.90;;;-0.60;54.30;;;;;;6096955;23;20605;-67
2021/01/27 05:49:28;;;;;;;42.00;15.40;;;-0.60;54.00;;;;;;6096881;23;20613;-68
2021/01/27 05:52:11;;;;;;;37.47;16.85;;;-0.60;54.00;;;;;;6096670;23;20158;-67
2021/01/27 05:54:43;;;;;;;21.63;10.05;;;-0.50;54.10;;;;;;6097075;23;20181;-67
2021/01/27 05:57:19;;;;;;;13.00;7.18;;;-0.50;53.80;;;;;;6097233;23;20157;-68
2021/01/27 05:59:49;;;;;;;9.50;4.68;;;-0.50;53.70;;;;;;6097718;23;20220;-67
2021/01/27 06:02:36;;;;;;;8.50;4.30;;;-0.50;53.90;;;;;;6096768;23;20516;-68
2021/01/27 06:05:06;;;;;;;5.47;3.42;;;-0.50;54.10;;;;;;6097141;23;20252;-67
2021/01/27 06:07:37;;;;;;;8.65;4.65;;;-0.50;54.20;;;;;;6096111;23;20620;-67
2021/01/27 06:10:32;;;;;;;5.97;3.80;;;-0.50;54.20;;;;;;6096771;23;20651;-69
2021/01/27 06:13:26;;;;;;;6.25;3.58;;;-0.50;54.10;;;;;;6096906;23;20160;-67
2021/01/27 06:16:15;;;;;;;4.70;2.70;;;-0.40;54.00;;;;;;6064964;23;20165;-68
2021/01/27 06:19:08;;;;;;;5.90;3.30;;;-0.40;54.10;;;;;;6067938;23;20167;-68
2021/01/27 06:22:00;;;;;;;6.70;3.20;;;-0.40;54.10;;;;;;6066973;23;20248;-68
2021/01/27 06:24:58;;;;;;;3.45;1.83;;;-0.40;54.30;;;;;;6068125;23;20177;-71
2021/01/27 06:27:54;;;;;;;3.78;1.90;;;-0.30;54.00;;;;;;6067147;23;20169;-67
2021/01/27 06:30:43;;;;;;;3.85;2.22;;;-0.30;54.00;;;;;;6067795;23;20158;-67
2021/01/27 06:33:33;;;;;;;8.25;4.55;;;-0.30;54.10;;;;;;6066687;23;20177;-69
2021/01/27 06:36:23;;;;;;;7.53;2.70;;;-0.30;54.00;;;;;;6067658;23;20181;-69
2021/01/27 06:39:08;;;;;;;4.10;3.08;;;-0.30;54.10;;;;;;6067028;23;20625;-68
2021/01/27 06:42:04;;;;;;;6.43;4.30;;;-0.30;54.20;;;;;;6067840;23;20241;-68
2021/01/27 06:44:48;;;;;;;6.43;3.58;;;-0.30;54.40;;;;;;6067548;23;20158;-70
2021/01/27 06:47:32;;;;;;;5.65;3.65;;;-0.30;54.40;;;;;;6067729;23;20162;-69
2021/01/27 06:50:22;;;;;;;6.93;3.80;;;-0.30;54.50;;;;;;6067499;23;20157;-66
2021/01/27 06:53:21;;;;;;;6.85;4.97;;;-0.30;54.60;;;;;;6067021;23;20162;-66
2021/01/27 06:56:03;;;;;;;9.70;5.30;;;-0.30;54.50;;;;;;6066968;23;20189;-66
2021/01/27 06:58:55;;;;;;;7.30;4.43;;;-0.30;54.60;;;;;;6066926;23;20158;-66
2021/01/27 07:01:58;;;;;;;9.25;4.65;;;-0.30;54.40;;;;;;6054929;23;20249;-66
2021/01/27 07:04:53;;;;;;;7.78;4.70;;;-0.30;54.20;;;;;;6066293;23;20639;-66
2021/01/27 07:07:51;;;;;;;7.05;4.70;;;-0.40;54.00;;;;;;6064308;23;20165;-69
2021/01/27 07:10:52;;;;;;;13.23;8.63;;;-0.40;54.00;;;;;;6066866;23;20166;-69
2021/01/27 07:13:45;;;;;;;11.77;7.97;;;-0.40;54.50;;;;;;6057985;23;20217;-66
2021/01/27 07:16:23;;;;;;;14.48;8.60;;;-0.40;54.80;;;;;;6092887;23;20244;-66
2021/01/27 07:19:11;;;;;;;13.93;8.27;;;-0.40;55.10;;;;;;6092349;23;20291;-66
2021/01/27 07:21:46;;;;;;;13.20;6.80;;;-0.40;55.30;;;;;;6095420;23;20253;-66
2021/01/27 07:24:18;;;;;;;12.90;7.55;;;-0.40;55.20;;;;;;6095591;23;20236;-67
2021/01/27 07:26:52;;;;;;;10.75;7.93;;;-0.40;55.10;;;;;;6096131;23;20239;-67
2021/01/27 07:29:26;;;;;;;14.20;10.15;;;-0.40;54.70;;;;;;6096298;23;20196;-67
2021/01/27 07:31:54;;;;;;;47.88;28.13;;;-0.40;55.00;;;;;;6095443;23;20161;-67
2021/01/27 07:34:29;;;;;;;21.73;11.43;;;-0.50;55.40;;;;;;6095926;23;20235;-68
2021/01/27 07:37:07;;;;;;;10.45;7.40;;;-0.40;55.40;;;;;;6095685;23;20240;-67
2021/01/27 07:39:42;;;;;;;39.60;22.15;;;-0.40;55.10;;;;;;6095447;23;20153;-67
2021/01/27 07:42:15;;;;;;;24.55;13.88;;;-0.30;55.40;;;;;;6095804;23;20188;-67
2021/01/27 07:44:45;;;;;;;37.67;21.17;;;-0.30;55.70;;;;;;6096296;23;20236;-69
2021/01/27 07:47:23;;;;;;;16.92;11.27;;;-0.20;55.50;;;;;;6094194;23;20168;-68
2021/01/27 07:49:58;;;;;;;12.60;7.80;;;-0.20;55.00;;;;;;6095591;23;20191;-67
2021/01/27 07:52:29;;;;;;;8.73;6.50;;;-0.10;54.90;;;;;;6095499;23;20246;-68
2021/01/27 07:55:07;;;;;;;8.52;6.03;;;0.00;55.00;;;;;;6095231;23;20181;-68
2021/01/27 07:57:52;;;;;;;12.95;8.57;;;0.10;55.00;;;;;;6091953;23;20161;-69
2021/01/27 08:00:22;;;;;;;12.43;8.27;;;0.20;55.00;;;;;;6089548;23;20157;-67
2021/01/27 08:03:11;;;;;;;7.72;6.00;;;0.30;55.00;;;;;;6094793;23;20171;-67
2021/01/27 08:05:41;;;;;;;5.18;3.95;;;0.40;55.60;;;;;;6096558;23;20158;-68
2021/01/27 08:08:12;;;;;;;6.28;4.35;;;0.60;55.00;;;;;;6097156;23;20169;-67
2021/01/27 08:10:40;;;;;;;7.07;3.53;;;0.80;55.00;;;;;;6097434;23;20157;-69
2021/01/27 08:13:09;;;;;;;5.38;3.75;;;1.00;54.70;;;;;;6097589;23;20252;-68
2021/01/27 08:16:00;;;;;;;4.50;3.35;;;1.20;54.10;;;;;;6097966;23;20204;-67
2021/01/27 08:18:27;;;;;;;7.82;4.18;;;1.40;53.50;;;;;;6097842;23;20169;-68
2021/01/27 08:21:26;;;;;;;4.63;3.00;;;1.70;53.30;;;;;;6098266;23;20465;-68
2021/01/27 08:23:53;;;;;;;9.68;5.00;;;1.90;52.60;;;;;;6090854;23;20172;-68
2021/01/27 08:26:52;;;;;;;6.88;4.65;;;2.00;51.20;;;;;;6098363;23;20228;-68
2021/01/27 08:29:29;;;;;;;6.57;5.40;;;2.10;50.80;;;;;;6098080;23;20170;-68
2021/01/27 08:32:26;;;;;;;13.80;7.78;;;2.00;50.50;;;;;;6097691;23;20200;-68
2021/01/27 08:34:56;;;;;;;60.58;30.23;;;1.90;51.00;;;;;;6098166;23;20189;-68
2021/01/27 08:37:26;;;;;;;15.20;9.88;;;2.00;51.10;;;;;;6097422;23;20170;-68
2021/01/27 08:40:18;;;;;;;13.15;8.88;;;2.00;51.20;;;;;;6098174;23;20485;-68
2021/01/27 08:42:49;;;;;;;12.60;11.30;;;2.10;51.30;;;;;;6097533;23;20162;-68
2021/01/27 08:45:26;;;;;;;16.65;9.48;;;2.20;51.10;;;;;;6097834;23;20157;-68
2021/01/27 08:47:56;;;;;;;9.43;5.32;;;2.30;51.00;;;;;;6097958;23;20164;-68
2021/01/27 08:50:44;;;;;;;13.30;7.53;;;2.50;50.80;;;;;;6097411;23;20176;-71
2021/01/27 08:53:13;;;;;;;6.32;4.10;;;2.70;49.90;;;;;;6091947;23;20169;-69
2021/01/27 08:55:58;;;;;;;8.77;3.80;;;2.70;49.60;;;;;;6098366;23;20487;-67
2021/01/27 08:58:33;;;;;;;5.68;3.88;;;2.70;48.90;;;;;;6094959;23;20164;-67
2021/01/27 09:01:02;;;;;;;7.55;4.00;;;2.60;48.10;;;;;;6096391;23;20235;-68
2021/01/27 09:04:08;;;;;;;7.13;4.00;;;2.50;48.10;;;;;;6095667;23;20201;-67
2021/01/27 09:06:44;;;;;;;5.28;4.30;;;2.50;48.40;;;;;;6097665;23;20169;-69
2021/01/27 09:09:29;;;;;;;6.43;4.28;;;2.40;48.40;;;;;;6097711;23;20597;-68
2021/01/27 09:12:01;;;;;;;6.80;3.88;;;2.40;48.70;;;;;;6097130;23;20609;-68
2021/01/27 09:14:29;;;;;;;6.97;4.25;;;2.40;49.00;;;;;;6097533;23;20647;-69
2021/01/27 09:16:56;;;;;;;6.97;4.00;;;2.40;49.00;;;;;;6096827;23;20177;-68
2021/01/27 09:19:25;;;;;;;8.15;5.00;;;2.50;49.50;;;;;;6097988;23;20247;-67
2021/01/27 09:22:09;;;;;;;8.40;6.72;;;2.50;49.30;;;;;;6097248;23;20248;-68
2021/01/27 09:24:43;;;;;;;5.82;4.40;;;2.60;49.70;;;;;;6098109;23;20192;-68
2021/01/27 09:27:25;;;;;;;10.15;6.15;;;2.50;49.40;;;;;;6097531;23;20153;-67
2021/01/27 09:29:59;;;;;;;6.25;4.13;;;2.60;49.60;;;;;;6097567;23;20165;-68
2021/01/27 09:32:26;;;;;;;6.60;4.30;;;2.60;49.60;;;;;;6097425;23;20236;-68
2021/01/27 09:34:53;;;;;;;6.45;4.05;;;2.60;49.40;;;;;;6096577;23;20193;-67
2021/01/27 09:37:24;;;;;;;6.28;4.65;;;2.70;49.30;;;;;;6097263;23;20172;-68
2021/01/27 09:40:06;;;;;;;13.32;7.05;;;2.90;49.70;;;;;;6093625;23;20205;-68
2021/01/27 09:42:33;;;;;;;9.40;5.82;;;3.00;49.90;;;;;;6097323;23;20161;-68
2021/01/27 09:45:11;;;;;;;8.98;5.30;;;3.20;49.80;;;;;;6097498;23;20208;-67
2021/01/27 09:47:49;;;;;;;9.30;5.97;;;3.40;49.20;;;;;;6097821;23;20213;-66
2021/01/27 09:50:19;;;;;;;6.55;4.63;;;3.50;47.80;;;;;;6097260;23;20485;-67
2021/01/27 09:52:54;;;;;;;5.00;4.35;;;3.50;47.40;;;;;;6097049;23;20157;-72
2021/01/27 09:55:22;;;;;;;8.77;4.55;;;3.40;47.20;;;;;;6096958;23;20185;-68
2021/01/27 09:57:51;;;;;;;8.27;4.65;;;3.30;47.00;;;;;;6097150;23;20269;-68
2021/01/27 10:00:34;;;;;;;7.90;4.50;;;3.30;46.90;;;;;;6097108;23;20169;-67
2021/01/27 10:03:23;;;;;;;5.40;3.25;;;3.20;47.40;;;;;;6094852;23;20256;-67
2021/01/27 10:05:50;;;;;;;7.10;4.28;;;3.30;47.10;;;;;;6097584;23;20153;-68
2021/01/27 10:08:25;;;;;;;6.47;4.57;;;3.30;47.30;;;;;;6097352;23;20496;-67
2021/01/27 10:11:05;;;;;;;6.30;4.13;;;3.40;47.10;;;;;;6097433;23;20157;-67
2021/01/27 10:13:52;;;;;;;8.98;5.50;;;3.40;47.20;;;;;;6096655;23;20180;-67
2021/01/27 10:16:20;;;;;;;13.57;7.63;;;3.50;47.40;;;;;;6096497;23;20196;-68
2021/01/27 10:18:47;;;;;;;12.68;7.22;;;3.50;47.10;;;;;;6097189;23;20208;-68
2021/01/27 10:21:18;;;;;;;8.73;7.10;;;3.50;47.10;;;;;;6096503;23;20205;-68
2021/01/27 10:23:48;;;;;;;9.18;6.25;;;3.60;47.00;;;;;;6096340;23;20192;-68
2021/01/27 10:26:35;;;;;;;9.48;5.57;;;3.60;46.60;;;;;;6097218;23;20173;-68
2021/01/27 10:29:24;;;;;;;9.85;7.13;;;3.60;47.00;;;;;;6097071;23;20165;-68
2021/01/27 10:31:52;;;;;;;12.05;7.00;;;3.60;46.80;;;;;;6095558;23;20158;-67
2021/01/27 10:34:38;;;;;;;10.23;7.10;;;3.60;46.50;;;;;;6096400;23;20280;-68
2021/01/27 10:37:06;;;;;;;12.52;7.75;;;3.60;46.10;;;;;;6096759;23;20163;-67
2021/01/27 10:39:33;;;;;;;12.68;7.10;;;3.60;46.70;;;;;;6096294;23;20628;-68
2021/01/27 10:42:21;;;;;;;13.30;7.57;;;3.70;47.00;;;;;;6096302;23;20465;-68
2021/01/27 10:45:13;;;;;;;9.32;5.38;;;3.80;47.00;;;;;;6090602;23;20169;-68
2021/01/27 10:47:43;;;;;;;9.13;5.50;;;3.90;46.70;;;;;;6096539;23;20169;-67
2021/01/27 10:50:12;;;;;;;10.85;6.47;;;4.00;46.60;;;;;;6096497;23;20169;-68
2021/01/27 10:52:39;;;;;;;8.40;5.75;;;4.00;47.00;;;;;;6096755;23;20185;-67
2021/01/27 10:55:12;;;;;;;9.77;5.97;;;4.10;46.80;;;;;;6096579;23;20193;-67
2021/01/27 10:57:39;;;;;;;35.55;18.27;;;4.20;46.30;;;;;;6096857;23;20534;-67
2021/01/27 11:00:07;;;;;;;24.23;13.60;;;4.20;46.40;;;;;;6097129;23;20260;-67
2021/01/27 11:02:44;;;;;;;15.82;10.45;;;4.30;46.70;;;;;;6096798;23;20165;-68
2021/01/27 11:05:12;;;;;;;14.43;11.15;;;4.40;46.70;;;;;;6097049;23;20160;-67
2021/01/27 11:07:39;;;;;;;24.00;17.23;;;4.50;46.10;;;;;;6096701;23;20616;-67
2021/01/27 11:10:07;;;;;;;18.33;12.50;;;4.60;46.10;;;;;;6096536;23;20620;-67
2021/01/27 11:12:35;;;;;;;7.68;5.20;;;4.60;46.40;;;;;;6096209;23;20177;-68
2021/01/27 11:15:08;;;;;;;7.53;4.93;;;4.60;45.90;;;;;;6096098;23;20722;-67
2021/01/27 11:17:35;;;;;;;22.63;17.58;;;4.60;46.00;;;;;;6097161;23;20159;-67
2021/01/27 11:20:03;;;;;;;8.70;4.90;;;4.70;45.20;;;;;;6096184;23;21401;-68
2021/01/27 11:22:30;;;;;;;8.80;6.07;;;4.70;44.90;;;;;;6096999;23;20616;-67
2021/01/27 11:24:56;;;;;;;5.95;3.83;;;4.70;45.20;;;;;;6096925;23;20200;-67
2021/01/27 11:27:23;;;;;;;5.90;4.05;;;4.70;43.80;;;;;;6097249;23;20165;-68
2021/01/27 11:29:50;;;;;;;7.10;4.93;;;4.60;43.50;;;;;;6096588;23;20164;-68
2021/01/27 11:32:16;;;;;;;10.75;5.60;;;4.60;44.30;;;;;;6096866;23;20172;-68
2021/01/27 11:34:45;;;;;;;12.27;8.48;;;4.60;44.70;;;;;;6096373;23;20279;-68
2021/01/27 11:37:12;;;;;;;16.33;11.13;;;4.60;44.60;;;;;;6096690;23;20649;-67
2021/01/27 11:39:39;;;;;;;7.40;5.00;;;4.60;44.40;;;;;;6096809;23;20173;-67
2021/01/27 11:42:06;;;;;;;5.50;3.40;;;4.60;44.70;;;;;;6098868;23;20185;-67
2021/01/27 11:44:32;;;;;;;8.18;5.25;;;4.70;44.80;;;;;;6098777;23;20465;-68
2021/01/27 11:46:59;;;;;;;7.30;2.95;;;4.70;44.90;;;;;;6099026;23;20228;-68
2021/01/27 11:49:26;;;;;;;8.50;5.85;;;4.80;44.80;;;;;;6098496;23;20173;-68
2021/01/27 11:51:54;;;;;;;6.35;4.75;;;4.80;44.90;;;;;;6098849;23;20176;-68
2021/01/27 11:54:22;;;;;;;4.57;3.17;;;4.90;45.10;;;;;;6098039;23;20193;-67
2021/01/27 11:56:48;;;;;;;3.17;2.22;;;4.90;44.70;;;;;;6094629;23;20232;-69
2021/01/27 11:59:15;;;;;;;2.22;1.55;;;4.90;44.80;;;;;;6098042;23;20173;-67
2021/01/27 12:01:42;;;;;;;3.15;1.60;;;4.90;44.30;;;;;;6097464;23;20173;-69
2021/01/27 12:04:09;;;;;;;7.00;3.97;;;4.90;44.40;;;;;;6097786;23;20176;-68
2021/01/27 12:06:36;;;;;;;3.90;2.60;;;4.90;45.00;;;;;;6097345;23;20256;-70
2021/01/27 12:09:03;;;;;;;12.25;7.78;;;4.90;44.70;;;;;;6098213;23;20180;-66
2021/01/27 12:11:30;;;;;;;8.90;5.50;;;4.90;45.30;;;;;;6097529;23;20169;-66
2021/01/27 12:13:57;;;;;;;7.78;3.97;;;4.90;45.90;;;;;;6095847;23;20204;-66
2021/01/27 12:16:24;;;;;;;6.65;5.03;;;4.90;45.90;;;;;;6096422;23;20177;-66
2021/01/27 12:18:50;;;;;;;10.95;6.10;;;4.90;45.90;;;;;;6097475;23;20220;-67
2021/01/27 12:21:17;;;;;;;8.02;3.58;;;4.90;46.00;;;;;;6098013;23;20679;-66
2021/01/27 12:23:43;;;;;;;2.28;1.38;;;4.90;46.10;;;;;;6096339;23;20554;-67
2021/01/27 12:26:09;;;;;;;3.13;1.65;;;4.90;45.70;;;;;;6098507;23;20243;-66
2021/01/27 12:28:37;;;;;;;6.05;2.97;;;4.90;45.50;;;;;;6097887;23;20248;-66
2021/01/27 12:31:04;;;;;;;2.97;1.85;;;4.90;45.50;;;;;;6098031;23;20676;-67
2021/01/27 12:33:30;;;;;;;2.95;1.50;;;4.90;45.60;;;;;;6097314;23;20248;-69
2021/01/27 12:35:57;;;;;;;2.47;1.40;;;4.90;45.30;;;;;;6097765;23;20193;-66
2021/01/27 12:38:28;;;;;;;3.13;1.80;;;4.80;45.50;;;;;;6094557;23;20256;-67
2021/01/27 12:40:57;;;;;;;2.55;1.63;;;4.80;45.50;;;;;;6098320;23;20158;-67
2021/01/27 12:43:24;;;;;;;3.75;2.28;;;4.80;45.40;;;;;;6098132;23;20179;-67
2021/01/27 12:45:52;;;;;;;3.78;2.30;;;4.80;45.80;;;;;;6097854;23;20177;-67
2021/01/27 12:48:20;;;;;;;6.32;2.05;;;4.80;45.90;;;;;;6097627;23;20170;-66
2021/01/27 12:50:52;;;;;;;2.88;1.75;;;4.70;46.20;;;;;;6097949;23;20224;-66
2021/01/27 12:53:26;;;;;;;2.28;1.10;;;4.50;47.50;;;;;;6097303;23;20188;-68
2021/01/27 12:55:54;;;;;;;1.50;0.70;;;4.40;49.60;;;;;;6098023;23;20184;-67
2021/01/27 12:58:26;;;;;;;2.45;1.02;;;4.30;51.70;;;;;;6097831;23;20169;-67
2021/01/27 13:00:56;;;;;;;1.92;0.80;;;4.10;52.80;;;;;;6098188;23;20161;-67
2021/01/27 13:03:29;;;;;;;2.70;1.25;;;4.10;53.60;;;;;;6097675;23;20165;-68
2021/01/27 13:05:58;;;;;;;3.47;1.38;;;4.10;54.10;;;;;;6098049;23;20498;-67
2021/01/27 13:08:25;;;;;;;2.00;1.30;;;4.00;54.80;;;;;;6097729;23;20497;-68
2021/01/27 13:10:53;;;;;;;2.85;1.70;;;4.00;55.20;;;;;;6097717;23;20466;-68
2021/01/27 13:13:20;;;;;;;2.05;1.25;;;3.90;56.00;;;;;;6097168;23;20169;-68
2021/01/27 13:15:53;;;;;;;3.80;1.90;;;3.50;56.90;;;;;;6097150;23;20213;-69
2021/01/27 13:18:24;;;;;;;1.90;1.20;;;3.20;58.50;;;;;;6098031;23;20285;-68
2021/01/27 13:21:06;;;;;;;3.22;1.73;;;3.10;59.20;;;;;;6097491;23;20153;-67
2021/01/27 13:23:47;;;;;;;5.00;1.73;;;3.10;60.10;;;;;;6097466;23;20609;-68
2021/01/27 13:26:19;;;;;;;4.22;1.63;;;3.10;60.70;;;;;;6095496;23;20624;-68
2021/01/27 13:28:48;;;;;;;3.55;2.10;;;3.10;60.70;;;;;;6097812;23;20593;-68
2021/01/27 13:31:18;;;;;;;2.50;1.65;;;3.10;61.60;;;;;;6097764;23;20459;-68
2021/01/27 13:33:54;;;;;;;2.97;2.05;;;3.10;61.70;;;;;;6096947;23;20718;-69